ADDS METAR Data INFO
IDs: Format: Raw Decoded Include TAF

Data at: 1259 UTC 19 Jul 2018

KHLC 191253Z AUTO 26007KT 9SM CLR 24/21 A2992 RMK AO2 SLP104 T02390211 TSNO
KHLC 191153Z AUTO 26009KT 8SM CLR 23/21 A2992 RMK AO2 SLP104 T02280211 10228 20206 55002 TSNO
KHLC 191053Z AUTO 26005KT 6SM BR CLR 22/21 A2992 RMK AO2 SLP105 T02170206 TSNO
KHLC 191032Z AUTO 00000KT 3SM BR CLR 21/21 A2992 RMK AO2 T02110211 TSNO
KHLC 191023Z AUTO 21003KT 1 3/4SM BR CLR 21/21 A2992 RMK AO2 T02110211 TSNO
KHLC 190953Z AUTO 00000KT 3SM BR FEW007 21/21 A2992 RMK AO2 SLP108 T02110206 TSNO
KHLC 190947Z AUTO 00000KT 1 1/2SM BR FEW007 21/21 A2992 RMK AO2 TSNO
KHLC 190943Z AUTO 11003KT 3/4SM BR VV007 21/21 A2992 RMK AO2 T02060206 TSNO
KHLC 190936Z AUTO 08003KT 1SM BR VV006 21/21 A2992 RMK AO2 T02110206 TSNO
KHLC 190934Z AUTO 00000KT 1 3/4SM BR CLR 21/21 A2992 RMK AO2 T02110206 TSNO
KHLC 190929Z AUTO 00000KT 3SM BR CLR 21/21 A2992 RMK AO2 T02110206 TSNO
KHLC 190924Z AUTO 00000KT 1 1/2SM BR CLR 21/21 A2992 RMK AO2 T02110206 TSNO
KHLC 190912Z AUTO 10003KT 3/4SM BR CLR 21/20 A2992 RMK AO2 T02060200 TSNO
KHLC 190907Z AUTO 08003KT 1 3/4SM BR CLR 21/21 A2993 RMK AO2 T02060206 TSNO
KHLC 190853Z AUTO 00000KT 4SM BR CLR 21/21 A2992 RMK AO2 SLP109 T02110211 56010 TSNO
KHLC 190753Z AUTO 08004KT 7SM CLR 22/22 A2993 RMK AO2 SLP111 T02220217 TSNO
KHLC 190653Z AUTO 00000KT 8SM CLR 23/22 A2994 RMK AO2 SLP113 T02280217 TSNO
KHLC 190553Z AUTO 07004KT 9SM CLR 23/22 A2996 RMK AO2 SLP120 T02330222 10311 20228 403170189 51014 TSNO
KHLC 190453Z AUTO 08005KT 10SM CLR 23/22 A2995 RMK AO2 SLP118 T02330222 TSNO
KHLC 190353Z AUTO 09003KT 10SM CLR 24/22 A2993 RMK AO2 SLP115 T02390217 TSNO
KHLC 190253Z AUTO 16005KT 10SM CLR 26/22 A2991 RMK AO2 SLP108 T02560217 55009 TSNO
KHLC 190153Z AUTO 15005KT 10SM CLR 28/22 A2991 RMK AO2 SLP103 T02780217 TSNO
KHLC 190053Z AUTO 16006KT 10SM CLR 31/22 A2993 RMK AO2 SLP109 T03060217 TSNO
KHLC 182353Z AUTO 15006KT 10SM CLR 31/21 A2994 RMK AO2 SLP113 T03110211 10317 20278 58015 TSNO
KHLC 182253Z AUTO 14007KT 10SM FEW036 31/22 A2996 RMK AO2 SLP119 T03110217 TSNO
KHLC 182153Z AUTO 21006KT 10SM SCT034 BKN045 31/22 A2998 RMK AO2 SLP125 T03110217 TSNO
KHLC 182053Z AUTO 26005KT 10SM SCT031 29/22 A2999 RMK AO2 SLP130 T02940217 58006 TSNO
KHLC 181953Z AUTO 20009KT 10SM CLR 30/22 A3000 RMK AO2 SLP133 T03000217 TSNO
KHLC 181853Z AUTO 18010KT 10SM FEW024 29/22 A3000 RMK AO2 SLP136 T02890222 TSNO
KHLC 181753Z AUTO 18010KT 10SM CLR 28/22 A3001 RMK AO2 SLP138 T02780217 10278 20189 56029 TSNO
KHLC 181653Z AUTO 15009KT 10SM CLR 26/21 A3002 RMK AO2 SLP145 T02560206 TSNO
KHLC 181632Z AUTO 10007KT 10SM FEW009 24/21 A3005 RMK AO2 T02440206 TSNO
KHLC 181553Z AUTO 11010G16KT 10SM CLR 22/19 A3004 RMK AO2 PK WND 02027/1456 WSHFT 1500 SLP153 T02220194 TSNO
KHLC 181539Z AUTO 09009KT 10SM SCT028 21/19 A3005 RMK AO2 PK WND 02027/1456 WSHFT 1500 T02110189 TSNO
KHLC 181520Z AUTO 10012G21KT 10SM SCT018 OVC028 20/18 A3006 RMK AO2 PK WND 02027/1456 WSHFT 1500 T02000183 TSNO
KHLC 181503Z AUTO 03016G27KT 6SM BR SCT002 OVC017 19/18 A3009 RMK AO2 PK WND 02027/1456 T01890183 TSNO
KHLC 181458Z AUTO 02019G29KT 2SM BR BKN002 OVC017 19/18 A3009 RMK AO2 PK WND 02027/1456 T01890183 TSNO
KHLC 181453Z AUTO 01019G29KT 1SM BR OVC002 21/21 A3010 RMK AO2 PK WND 36029/1452 SLP174 T02060206 50011 TSNO
KHLC 181450Z AUTO 02014KT 1SM BR OVC002 22/21 A3010 RMK AO2 TSNO
KHLC 181438Z AUTO 04010KT 3/4SM BR OVC002 22/22 A3009 RMK AO2 T02170217 TSNO
KHLC 181409Z AUTO 05007KT 1 1/4SM BR OVC002 22/22 A3009 RMK AO2 T02170217 TSNO
KHLC 181358Z AUTO 05005KT 2SM BR OVC002 22/22 A3008 RMK AO2 T02170217 TSNO
KHLC 181353Z AUTO 05006KT 1SM BR OVC002 22/22 A3008 RMK AO2 SLP165 T02170217 TSNO
KHLC 181332Z AUTO 05006KT 1/4SM FG VV002 22/22 A3007 RMK AO2 T02170217 TSNO
KHLC 181253Z AUTO 07006KT 1/2SM FG VV002 22/22 A3007 RMK AO2 SLP158 T02170217 TSNO
KHLC 181249Z AUTO 07004KT 1/2SM FG VV002 22/22 A3006 RMK AO2 TSNO
KHLC 181229Z AUTO 09007KT 1/4SM FG VV002 22/22 A3005 RMK AO2 T02170217 TSNO
KHLC 181211Z AUTO 09008KT 3/4SM BR VV002 22/22 A3006 RMK AO2 T02170217 TSNO
KHLC 181153Z AUTO 06009KT 1/4SM FG VV002 22/22 A3007 RMK AO2 SLP158 T02170217 10222 20217 53002 TSNO
KHLC 181114Z AUTO 08007KT 1/4SM FG VV002 22/22 A3005 RMK AO2 T02170217 TSNO
KHLC 181053Z AUTO 10007KT 3/4SM BR VV002 22/22 A3004 RMK AO2 SLP148 T02170217 TSNO
KHLC 181042Z AUTO 09005KT 1 1/4SM BR OVC002 22/22 A3004 RMK AO2 T02170217 TSNO
KHLC 181019Z AUTO 09005KT 1 3/4SM BR OVC002 22/22 A3004 RMK AO2 T02170217 TSNO
KHLC 180953Z AUTO 12006KT 4SM BR OVC004 22/22 A3004 RMK AO2 SLP146 T02220217 TSNO
KHLC 180853Z AUTO 11004KT 5SM BR OVC004 22/22 A3006 RMK AO2 SLP154 T02220217 58002 TSNO
KHLC 180753Z AUTO 10007KT 5SM BR OVC003 22/22 A3006 RMK AO2 SLP156 T02220217 TSNO
KHLC 180736Z AUTO 10008KT 5SM BR OVC004 22/22 A3006 RMK AO2 T02220217 TSNO
KHLC 180709Z AUTO 08006KT 5SM BR BKN005 22/22 A3006 RMK AO2 T02170217 TSNO
KHLC 180653Z AUTO 08006KT 6SM BR FEW006 22/21 A3006 RMK AO2 SLP157 T02170211 TSNO
KHLC 180553Z AUTO 10004KT 9SM CLR 22/21 A3008 RMK AO2 SLP163 T02220211 10300 20222 403060189 50009 TSNO
KHLC 180453Z AUTO 12003KT 10SM CLR 22/21 A3009 RMK AO2 SLP166 T02220211 TSNO
KHLC 180353Z AUTO 06005KT 10SM CLR 23/21 A3009 RMK AO2 SLP170 T02280211 TSNO
KHLC 180253Z AUTO 08007KT 10SM CLR 24/21 A3005 RMK AO2 SLP157 T02390211 50000 TSNO
KHLC 180153Z AUTO 07008KT 10SM CLR 26/22 A3006 RMK AO2 SLP159 T02560217 TSNO